createdAt,value
2019-05-07T00:01:23.257Z,12.00
2019-05-07T00:03:52.959Z,14.20
2019-05-07T00:06:23.165Z,18.17
2019-05-07T00:08:53.129Z,22.57
2019-05-07T00:11:22.583Z,14.27
2019-05-07T00:13:52.353Z,18.73
2019-05-07T00:16:22.403Z,16.20
2019-05-07T00:18:52.523Z,18.43
2019-05-07T00:21:23.346Z,16.33
2019-05-07T00:23:53.487Z,16.27
2019-05-07T00:26:22.927Z,19.67
2019-05-07T00:28:52.783Z,17.97
2019-05-07T00:31:23.402Z,14.50
2019-05-07T00:33:55.496Z,14.67
2019-05-07T00:36:33.836Z,15.40
2019-05-07T00:39:14.630Z,19.63
2019-05-07T00:41:52.110Z,15.63
2019-05-07T00:44:22.066Z,16.17
2019-05-07T00:46:52.561Z,14.33
2019-05-07T00:49:24.478Z,15.07
2019-05-07T00:51:54.350Z,12.77
2019-05-07T00:54:24.025Z,16.23
2019-05-07T00:56:55.972Z,16.27
2019-05-07T00:59:29.248Z,15.17
2019-05-07T01:01:58.664Z,20.27
2019-05-07T01:04:28.212Z,15.73
2019-05-07T01:06:57.880Z,14.63
2019-05-07T01:09:27.293Z,25.07
2019-05-07T01:11:56.725Z,15.67
2019-05-07T01:14:26.306Z,15.13
2019-05-07T01:16:55.741Z,16.87
2019-05-07T01:19:25.216Z,18.43
2019-05-07T01:21:55.124Z,22.30
2019-05-07T01:24:24.572Z,15.53
2019-05-07T01:26:54.018Z,16.63
2019-05-07T01:29:23.544Z,17.00
2019-05-07T01:31:58.913Z,20.53
2019-05-07T01:34:37.988Z,15.47
2019-05-07T01:37:07.405Z,19.13
2019-05-07T01:39:37.230Z,17.23
2019-05-07T01:42:06.698Z,17.90
2019-05-07T01:44:36.694Z,17.07
2019-05-07T01:47:06.133Z,17.80
2019-05-07T01:49:35.856Z,20.37
2019-05-07T01:52:05.305Z,28.07
2019-05-07T01:54:34.729Z,18.77
2019-05-07T01:57:04.556Z,17.00
2019-05-07T01:59:33.961Z,16.80
2019-05-07T02:02:13.582Z,20.27
2019-05-07T02:04:52.874Z,17.60
2019-05-07T02:07:29.748Z,16.57
2019-05-07T02:10:03.310Z,17.03
2019-05-07T02:12:34.395Z,18.03
2019-05-07T02:15:05.070Z,15.80
2019-05-07T02:17:34.513Z,18.13
2019-05-07T02:20:04.763Z,18.27
2019-05-07T02:22:34.201Z,18.83
2019-05-07T02:25:03.952Z,19.50
2019-05-07T02:27:33.403Z,22.60
2019-05-07T02:30:04.331Z,18.70
2019-05-07T02:32:34.165Z,20.37
2019-05-07T02:35:04.369Z,19.70
2019-05-07T02:37:48.665Z,27.77
2019-05-07T02:40:17.702Z,17.10
2019-05-07T02:42:47.179Z,18.33
2019-05-07T02:45:29.410Z,20.37
2019-05-07T02:47:59.218Z,15.83
2019-05-07T02:50:34.138Z,15.37
2019-05-07T02:53:09.183Z,18.00
2019-05-07T02:55:44.210Z,18.50
2019-05-07T02:58:13.881Z,18.23
2019-05-07T03:00:44.014Z,18.60
2019-05-07T03:03:13.950Z,20.33
2019-05-07T03:05:43.660Z,13.97
2019-05-07T03:08:13.819Z,21.27
2019-05-07T03:10:43.842Z,16.60
2019-05-07T03:13:14.241Z,18.33
2019-05-07T03:15:44.044Z,17.07
2019-05-07T03:18:14.456Z,16.70
2019-05-07T03:21:03.705Z,20.20
2019-05-07T03:23:43.269Z,17.73
2019-05-07T03:26:19.221Z,23.23
2019-05-07T03:28:56.539Z,18.17
2019-05-07T03:31:36.295Z,24.23
2019-05-07T03:34:26.061Z,20.13
2019-05-07T03:36:57.430Z,22.33
2019-05-07T03:39:28.412Z,14.57
2019-05-07T03:41:58.444Z,18.10
2019-05-07T03:44:44.562Z,19.73
2019-05-07T03:47:23.582Z,19.73
2019-05-07T03:49:53.513Z,20.50
2019-05-07T03:52:24.542Z,23.63
2019-05-07T03:54:54.339Z,21.80
2019-05-07T03:57:26.666Z,26.37
2019-05-07T03:59:56.083Z,25.63
2019-05-07T04:02:25.561Z,28.70
2019-05-07T04:04:55.267Z,20.57
2019-05-07T04:07:24.801Z,19.30
2019-05-07T04:09:54.468Z,14.87
2019-05-07T04:12:24.219Z,15.53
2019-05-07T04:14:54.944Z,16.67
2019-05-07T04:17:26.856Z,14.13
2019-05-07T04:19:55.551Z,17.83
2019-05-07T04:22:28.852Z,20.53
2019-05-07T04:25:15.376Z,21.40
2019-05-07T04:28:23.643Z,15.57
2019-05-07T04:30:54.742Z,16.77
2019-05-07T04:33:26.135Z,12.13
2019-05-07T04:36:14.092Z,17.03
2019-05-07T04:38:44.282Z,18.10
2019-05-07T04:41:14.310Z,24.40
2019-05-07T04:43:43.837Z,13.23
2019-05-07T04:46:14.479Z,17.83
2019-05-07T04:48:44.321Z,12.93
2019-05-07T04:51:15.900Z,16.27
2019-05-07T04:53:45.285Z,14.43
2019-05-07T04:56:14.794Z,15.50
2019-05-07T04:58:44.468Z,14.00
2019-05-07T05:01:15.601Z,15.77
2019-05-07T05:03:45.108Z,12.30
2019-05-07T05:06:14.592Z,17.30
2019-05-07T05:08:44.335Z,11.37
2019-05-07T05:11:13.736Z,15.10
2019-05-07T05:13:45.720Z,11.57
2019-05-07T05:16:25.209Z,12.37
2019-05-07T05:18:56.113Z,15.10
2019-05-07T05:21:53.916Z,16.67
2019-05-07T05:24:29.636Z,10.67
2019-05-07T05:26:59.085Z,13.73
2019-05-07T05:29:28.709Z,13.07
2019-05-07T05:31:58.169Z,9.23
2019-05-07T05:34:27.689Z,10.73
2019-05-07T05:36:57.335Z,11.83
2019-05-07T05:39:26.823Z,10.70
2019-05-07T05:42:02.623Z,10.27
2019-05-07T05:44:33.730Z,11.73
2019-05-07T05:47:03.385Z,12.97
2019-05-07T05:49:32.768Z,13.27
2019-05-07T05:52:13.244Z,16.27
2019-05-07T05:54:49.827Z,14.87
2019-05-07T05:57:32.371Z,8.00
2019-05-07T06:00:17.836Z,14.50
2019-05-07T06:02:59.363Z,13.77
2019-05-07T06:05:47.982Z,16.27
2019-05-07T06:08:49.038Z,18.33
2019-05-07T06:11:37.525Z,9.67
2019-05-07T06:14:14.704Z,10.37
2019-05-07T06:16:52.532Z,9.10
2019-05-07T06:19:32.693Z,11.10
2019-05-07T06:22:22.342Z,10.83
2019-05-07T06:25:15.378Z,12.83
2019-05-07T06:27:45.430Z,7.87
2019-05-07T06:30:15.836Z,16.60
2019-05-07T06:32:45.456Z,10.97
2019-05-07T06:35:15.041Z,9.73
2019-05-07T06:37:45.489Z,12.80
2019-05-07T06:40:32.172Z,13.80
2019-05-07T06:43:21.807Z,8.53
2019-05-07T06:45:54.091Z,9.33
2019-05-07T06:48:37.882Z,7.13
2019-05-07T06:50:58.210Z,11.27
2019-05-07T06:53:33.447Z,8.03
2019-05-07T06:56:03.788Z,8.50
2019-05-07T06:58:39.298Z,12.23
2019-05-07T07:01:27.653Z,14.67
2019-05-07T07:04:04.331Z,10.83
2019-05-07T07:06:42.655Z,6.83
2019-05-07T07:09:32.795Z,12.23
2019-05-07T07:12:03.939Z,9.15
2019-05-07T07:14:33.493Z,9.95
2019-05-07T07:17:03.181Z,15.13
2019-05-07T07:19:35.998Z,11.40
2019-05-07T07:22:03.832Z,9.77
2019-05-07T07:24:33.334Z,9.48
2019-05-07T07:27:02.797Z,10.60
2019-05-07T07:29:34.247Z,6.47
2019-05-07T07:32:05.849Z,6.13
2019-05-07T07:34:39.835Z,7.25
2019-05-07T07:37:16.394Z,9.70
2019-05-07T07:39:45.946Z,10.20
2019-05-07T07:42:15.343Z,6.30
2019-05-07T07:44:44.825Z,7.87
2019-05-07T07:47:14.377Z,9.80
2019-05-07T07:49:43.942Z,5.62
2019-05-07T07:52:13.395Z,8.90
2019-05-07T07:54:43.060Z,5.75
2019-05-07T07:57:34.457Z,9.30
2019-05-07T08:00:23.390Z,7.35
2019-05-07T08:02:59.485Z,6.12
2019-05-07T08:05:28.920Z,8.53
2019-05-07T08:07:58.419Z,9.60
2019-05-07T08:10:27.932Z,9.50
2019-05-07T08:12:57.380Z,9.68
2019-05-07T08:15:26.845Z,8.13
2019-05-07T08:17:56.378Z,6.92
2019-05-07T08:20:26.928Z,7.20
2019-05-07T08:22:56.385Z,6.20
2019-05-07T08:25:43.673Z,8.90
2019-05-07T08:28:13.069Z,8.80
2019-05-07T08:30:44.308Z,10.48
2019-05-07T08:33:24.286Z,7.95
2019-05-07T08:36:11.998Z,4.53
2019-05-07T08:38:55.671Z,9.00
2019-05-07T08:41:26.912Z,5.50
2019-05-07T08:44:11.563Z,7.08
2019-05-07T08:46:44.950Z,5.28
2019-05-07T08:49:14.779Z,11.78
2019-05-07T08:51:44.372Z,7.80
2019-05-07T08:54:13.812Z,6.90
2019-05-07T08:56:43.244Z,7.92
2019-05-07T08:59:12.794Z,7.60
2019-05-07T09:01:43.376Z,6.60
2019-05-07T09:04:13.615Z,7.73
2019-05-07T09:06:43.271Z,7.35
2019-05-07T09:09:13.844Z,6.08
2019-05-07T09:11:43.311Z,6.80
2019-05-07T09:14:12.894Z,10.88
2019-05-07T09:16:42.882Z,8.55
2019-05-07T09:19:13.072Z,8.13
2019-05-07T09:21:43.016Z,4.93
2019-05-07T09:24:12.598Z,8.95
2019-05-07T09:26:48.107Z,6.28
2019-05-07T09:29:26.291Z,6.37
2019-05-07T09:32:14.734Z,5.97
2019-05-07T09:34:46.195Z,7.37
2019-05-07T09:37:19.154Z,5.85
2019-05-07T09:39:48.710Z,5.92
2019-05-07T09:42:18.466Z,5.00
2019-05-07T09:44:47.976Z,4.95
2019-05-07T09:47:17.448Z,5.67
2019-05-07T09:49:46.915Z,5.80
2019-05-07T09:52:16.402Z,5.70
2019-05-07T09:54:45.835Z,5.83
2019-05-07T09:57:27.712Z,3.90
2019-05-07T09:59:46.654Z,8.37
2019-05-07T10:02:16.222Z,6.53
2019-05-07T10:04:45.695Z,6.28
2019-05-07T10:07:15.255Z,7.55
2019-05-07T10:09:44.922Z,4.97
2019-05-07T10:12:33.452Z,5.47
2019-05-07T10:15:03.244Z,5.33
2019-05-07T10:17:47.078Z,7.65
2019-05-07T10:20:22.355Z,3.30
2019-05-07T10:22:49.336Z,5.03
2019-05-07T10:25:18.880Z,8.20
2019-05-07T10:27:48.446Z,5.07
2019-05-07T10:30:17.905Z,5.05
2019-05-07T10:32:47.367Z,3.65
2019-05-07T10:35:16.997Z,6.37
2019-05-07T10:37:46.441Z,6.00
2019-05-07T10:40:16.286Z,6.47
2019-05-07T10:42:46.593Z,6.37
2019-05-07T10:45:37.965Z,5.85
2019-05-07T10:48:14.479Z,8.78
2019-05-07T10:50:46.060Z,6.87
2019-05-07T10:53:15.956Z,8.57
2019-05-07T10:55:45.664Z,6.33
2019-05-07T10:58:15.218Z,7.70
2019-05-07T11:00:44.679Z,7.10
2019-05-07T11:03:14.136Z,5.28
2019-05-07T11:05:43.574Z,20.17
2019-05-07T11:08:13.025Z,6.67
2019-05-07T11:10:42.461Z,4.62
2019-05-07T11:13:12.823Z,8.30
2019-05-07T11:15:44.128Z,3.83
2019-05-07T11:18:18.707Z,6.00
2019-05-07T11:20:50.429Z,6.30
2019-05-07T11:23:19.168Z,6.22
2019-05-07T11:25:48.585Z,4.65
2019-05-07T11:28:18.072Z,5.42
2019-05-07T11:30:47.573Z,4.63
2019-05-07T11:33:16.979Z,4.90
2019-05-07T11:35:46.422Z,4.67
2019-05-07T11:38:22.286Z,4.67
2019-05-07T11:40:46.991Z,6.42
2019-05-07T11:43:38.172Z,7.12
2019-05-07T11:46:15.135Z,12.55
2019-05-07T11:48:51.282Z,16.87
2019-05-07T11:51:35.407Z,8.45
2019-05-07T11:54:09.674Z,10.68
2019-05-07T11:56:41.994Z,9.03
2019-05-07T11:59:13.096Z,4.92
2019-05-07T12:01:48.606Z,7.95
2019-05-07T12:04:18.086Z,8.28
2019-05-07T12:06:48.047Z,8.13
2019-05-07T12:09:17.532Z,11.28
2019-05-07T12:11:46.949Z,12.07
2019-05-07T12:14:28.179Z,5.97
2019-05-07T12:16:47.830Z,6.83
2019-05-07T12:19:17.334Z,14.85
2019-05-07T12:21:47.341Z,8.07
2019-05-07T12:24:16.847Z,5.97
2019-05-07T12:26:46.236Z,7.17
2019-05-07T12:29:15.726Z,6.90
2019-05-07T12:32:07.202Z,7.75
2019-05-07T12:34:43.104Z,8.13
2019-05-07T12:37:12.769Z,6.87
2019-05-07T12:39:42.449Z,7.97
2019-05-07T12:42:12.237Z,5.42
2019-05-07T12:44:42.513Z,5.22
2019-05-07T12:47:12.234Z,7.60
2019-05-07T12:49:42.898Z,6.95
2019-05-07T12:52:22.644Z,6.07
2019-05-07T12:54:58.738Z,5.67
2019-05-07T12:57:28.164Z,8.35
2019-05-07T13:00:02.107Z,8.25
2019-05-07T13:02:44.811Z,6.37
2019-05-07T13:05:14.259Z,7.35
2019-05-07T13:08:03.210Z,5.20
2019-05-07T13:10:33.009Z,8.93
2019-05-07T13:13:02.451Z,5.50
2019-05-07T13:15:32.654Z,6.80
2019-05-07T13:18:02.735Z,7.22
2019-05-07T13:20:32.567Z,4.62
2019-05-07T13:23:02.245Z,6.25
2019-05-07T13:25:32.412Z,6.22
2019-05-07T13:28:02.668Z,5.75
2019-05-07T13:30:32.294Z,4.95
2019-05-07T13:33:03.368Z,7.28
2019-05-07T13:35:33.094Z,5.30
2019-05-07T13:38:23.730Z,5.05
2019-05-07T13:40:58.307Z,5.62
2019-05-07T13:43:32.861Z,7.33
2019-05-07T13:46:08.849Z,5.90
2019-05-07T13:48:39.679Z,5.60
2019-05-07T13:51:09.169Z,4.87
2019-05-07T13:53:38.661Z,6.28
2019-05-07T13:56:08.097Z,5.60
2019-05-07T13:58:37.587Z,8.58
2019-05-07T14:01:15.003Z,4.62
2019-05-07T14:03:44.501Z,4.33
2019-05-07T14:06:16.651Z,5.35
2019-05-07T14:08:46.170Z,5.17
2019-05-07T14:11:16.241Z,5.03
2019-05-07T14:13:45.777Z,4.70
2019-05-07T14:16:15.291Z,4.17
2019-05-07T14:18:44.734Z,8.27
2019-05-07T14:21:14.177Z,5.55
2019-05-07T14:23:43.978Z,5.30
2019-05-07T14:26:13.429Z,4.90
2019-05-07T14:28:42.870Z,9.93
2019-05-07T14:31:12.473Z,6.78
2019-05-07T14:33:53.921Z,8.48
2019-05-07T14:36:26.095Z,10.97
2019-05-07T14:38:55.564Z,7.37
2019-05-07T14:41:25.758Z,6.00
2019-05-07T14:44:01.281Z,7.08
2019-05-07T14:46:43.551Z,9.15
2019-05-07T14:49:02.801Z,7.83
2019-05-07T14:51:32.669Z,9.05
2019-05-07T14:54:02.334Z,6.95
2019-05-07T14:56:32.383Z,6.95
2019-05-07T14:59:02.838Z,8.78
2019-05-07T15:01:33.918Z,11.47
2019-05-07T15:04:03.767Z,7.05
2019-05-07T15:06:33.878Z,7.47
2019-05-07T15:09:04.363Z,5.70
2019-05-07T15:11:34.528Z,6.07
2019-05-07T15:14:04.448Z,5.60
2019-05-07T15:16:34.181Z,6.08
2019-05-07T15:19:04.932Z,8.30
2019-05-07T15:21:34.373Z,6.87
2019-05-07T15:24:04.188Z,4.35
2019-05-07T15:26:34.628Z,7.62
2019-05-07T15:29:09.338Z,9.58
2019-05-07T15:31:56.531Z,8.30
2019-05-07T15:34:26.368Z,18.90
2019-05-07T15:36:55.857Z,7.00
2019-05-07T15:39:25.258Z,8.00
2019-05-07T15:41:54.953Z,8.68
2019-05-07T15:44:24.394Z,13.55
2019-05-07T15:46:55.872Z,5.78
2019-05-07T15:49:25.591Z,5.37
2019-05-07T15:51:56.605Z,6.37
2019-05-07T15:54:34.865Z,7.72
2019-05-07T15:57:06.890Z,8.35
2019-05-07T15:59:36.326Z,7.45
2019-05-07T16:02:13.571Z,6.47
2019-05-07T16:04:43.076Z,5.20
2019-05-07T16:07:13.502Z,11.05
2019-05-07T16:09:43.701Z,6.13
2019-05-07T16:12:14.939Z,6.30
2019-05-07T16:14:44.419Z,7.28
2019-05-07T16:17:26.984Z,6.53
2019-05-07T16:19:56.445Z,9.43
2019-05-07T16:22:32.796Z,6.70
2019-05-07T16:25:06.910Z,8.50
2019-05-07T16:27:36.074Z,5.20
2019-05-07T16:30:07.141Z,8.88
2019-05-07T16:32:36.602Z,8.28
2019-05-07T16:35:06.231Z,9.98
2019-05-07T16:37:35.699Z,7.60
2019-05-07T16:40:06.215Z,7.92
2019-05-07T16:42:38.047Z,6.75
2019-05-07T16:45:07.454Z,8.63
2019-05-07T16:47:37.007Z,6.43
2019-05-07T16:50:06.997Z,6.10
2019-05-07T16:52:36.771Z,5.78
2019-05-07T16:55:07.303Z,9.50
2019-05-07T16:57:58.318Z,12.03
2019-05-07T17:00:37.915Z,4.60
2019-05-07T17:03:11.721Z,8.23
2019-05-07T17:05:42.850Z,4.42
2019-05-07T17:08:31.944Z,9.00
2019-05-07T17:11:03.078Z,8.90
2019-05-07T17:13:32.972Z,7.20
2019-05-07T17:16:03.518Z,8.08
2019-05-07T17:18:33.251Z,23.02
2019-05-07T17:21:02.700Z,8.20
2019-05-07T17:23:43.293Z,8.53
2019-05-07T17:26:04.935Z,8.58
2019-05-07T17:28:34.291Z,8.15
2019-05-07T17:31:03.752Z,11.20
2019-05-07T17:33:33.908Z,7.25
2019-05-07T17:36:03.902Z,8.68
2019-05-07T17:38:33.319Z,10.68
2019-05-07T17:41:10.929Z,10.98
2019-05-07T17:43:34.213Z,9.13
2019-05-07T17:46:03.876Z,8.35
2019-05-07T17:48:33.595Z,6.47
2019-05-07T17:51:24.889Z,8.95
2019-05-07T17:53:59.982Z,6.43
2019-05-07T17:56:27.653Z,6.53
2019-05-07T17:58:57.137Z,8.08
2019-05-07T18:01:35.142Z,8.38
2019-05-07T18:04:04.592Z,8.95
2019-05-07T18:06:34.122Z,8.40
2019-05-07T18:09:03.944Z,5.83
2019-05-07T18:11:33.801Z,8.97
2019-05-07T18:14:03.314Z,8.40
2019-05-07T18:16:54.911Z,18.50
2019-05-07T18:19:24.441Z,8.40
2019-05-07T18:21:53.947Z,8.25
2019-05-07T18:24:23.427Z,6.77
2019-05-07T18:26:52.928Z,7.35
2019-05-07T18:29:22.609Z,12.33
2019-05-07T18:31:55.939Z,7.03
2019-05-07T18:34:25.472Z,9.20
2019-05-07T18:36:55.286Z,9.50
2019-05-07T18:39:24.847Z,11.38
2019-05-07T18:41:54.407Z,15.30
2019-05-07T18:44:23.967Z,12.80
2019-05-07T18:46:53.501Z,10.65
2019-05-07T18:49:23.310Z,12.07
2019-05-07T18:51:52.817Z,21.65
2019-05-07T18:54:30.328Z,17.87
2019-05-07T18:56:53.621Z,12.23
2019-05-07T18:59:25.164Z,10.72
2019-05-07T19:01:54.589Z,9.50
2019-05-07T19:04:24.109Z,11.75
2019-05-07T19:06:53.612Z,13.88
2019-05-07T19:09:23.072Z,12.65
2019-05-07T19:11:52.529Z,14.13
2019-05-07T19:14:22.718Z,20.45
2019-05-07T19:16:52.739Z,14.58
2019-05-07T19:19:22.414Z,15.32
2019-05-07T19:21:53.069Z,17.50
2019-05-07T19:24:25.996Z,21.37
2019-05-07T19:26:53.777Z,23.52
2019-05-07T19:29:23.551Z,40.80
2019-05-07T19:31:52.994Z,38.00
2019-05-07T19:34:22.744Z,28.50
2019-05-07T19:36:52.272Z,27.30
2019-05-07T19:39:23.383Z,31.27
2019-05-07T19:41:52.985Z,29.15
2019-05-07T19:44:22.866Z,35.05
2019-05-07T19:46:52.617Z,85.12
2019-05-07T19:49:22.238Z,24.23
2019-05-07T19:51:52.390Z,25.60
2019-05-07T19:54:22.840Z,23.55
2019-05-07T19:56:52.761Z,20.00
2019-05-07T19:59:22.389Z,20.55
2019-05-07T20:01:57.198Z,20.52
2019-05-07T20:04:26.654Z,16.37
2019-05-07T20:06:56.301Z,18.33
2019-05-07T20:09:32.342Z,18.67
2019-05-07T20:12:02.657Z,18.00
2019-05-07T20:14:33.154Z,21.12
2019-05-07T20:17:03.090Z,19.85
2019-05-07T20:19:32.997Z,16.70
2019-05-07T20:22:02.527Z,22.02
2019-05-07T20:24:32.950Z,22.58
2019-05-07T20:27:03.184Z,25.72
2019-05-07T20:29:33.111Z,57.30
2019-05-07T20:32:02.559Z,57.95
2019-05-07T20:34:33.238Z,23.20
2019-05-07T20:37:04.572Z,20.60
2019-05-07T20:39:34.014Z,17.42
2019-05-07T20:42:03.546Z,20.47
2019-05-07T20:44:33.196Z,20.40
2019-05-07T20:47:02.588Z,17.87
2019-05-07T20:49:32.213Z,18.42
2019-05-07T20:52:01.898Z,20.77
2019-05-07T20:54:45.630Z,23.73
2019-05-07T20:57:24.932Z,20.92
2019-05-07T20:59:54.320Z,25.08
2019-05-07T21:02:23.751Z,26.77
2019-05-07T21:04:53.281Z,28.02
2019-05-07T21:07:22.748Z,25.27
2019-05-07T21:09:53.011Z,28.62
2019-05-07T21:12:23.059Z,26.00
2019-05-07T21:14:52.635Z,27.85
2019-05-07T21:17:22.756Z,32.93
2019-05-07T21:19:52.485Z,32.63
2019-05-07T21:22:22.636Z,54.95
2019-05-07T21:24:53.283Z,52.93
2019-05-07T21:27:23.214Z,45.13
2019-05-07T21:29:52.813Z,48.52
2019-05-07T21:32:23.125Z,47.80
2019-05-07T21:34:52.860Z,47.15
2019-05-07T21:37:22.871Z,178.90
2019-05-07T21:39:53.245Z,44.77
2019-05-07T21:42:23.124Z,56.10
2019-05-07T21:44:52.874Z,49.48
2019-05-07T21:47:22.593Z,45.12
2019-05-07T21:49:54.905Z,42.03
2019-05-07T21:52:24.055Z,36.77
2019-05-07T21:55:05.813Z,40.60
2019-05-07T21:57:54.582Z,42.53
2019-05-07T22:00:45.080Z,41.15
2019-05-07T22:03:16.539Z,37.90
2019-05-07T22:05:45.993Z,40.73
2019-05-07T22:08:15.437Z,43.63
2019-05-07T22:10:45.045Z,42.23
2019-05-07T22:13:14.693Z,44.20
2019-05-07T22:15:44.162Z,42.90
2019-05-07T22:18:14.029Z,47.83
2019-05-07T22:20:43.471Z,48.98
2019-05-07T22:23:12.909Z,52.13
2019-05-07T22:25:42.581Z,40.08
2019-05-07T22:28:13.396Z,51.25
2019-05-07T22:30:52.771Z,53.30
2019-05-07T22:33:30.869Z,49.13
2019-05-07T22:36:01.821Z,57.85
2019-05-07T22:38:32.367Z,53.73
2019-05-07T22:41:02.235Z,50.52
2019-05-07T22:43:31.919Z,73.52
2019-05-07T22:46:01.556Z,124.50
2019-05-07T22:48:32.450Z,56.42
2019-05-07T22:51:02.733Z,52.23
2019-05-07T22:53:32.873Z,49.33
2019-05-07T22:56:03.189Z,47.67
2019-05-07T22:58:36.756Z,50.83
2019-05-07T23:01:08.400Z,50.43
2019-05-07T23:03:38.019Z,46.85
2019-05-07T23:06:07.623Z,46.53
2019-05-07T23:08:38.592Z,44.55
2019-05-07T23:11:08.459Z,47.15
2019-05-07T23:13:38.000Z,39.60
2019-05-07T23:16:08.312Z,52.55
2019-05-07T23:18:38.374Z,48.68
2019-05-07T23:21:07.923Z,41.25
2019-05-07T23:23:37.575Z,42.80
2019-05-07T23:26:06.998Z,44.85
2019-05-07T23:28:36.458Z,52.83
2019-05-07T23:31:06.148Z,42.70
2019-05-07T23:33:35.604Z,42.00
2019-05-07T23:36:05.156Z,43.48
2019-05-07T23:38:34.922Z,40.30
2019-05-07T23:41:38.371Z,47.83
2019-05-07T23:44:12.689Z,47.00
2019-05-07T23:46:44.775Z,43.83
2019-05-07T23:49:13.548Z,51.20
2019-05-07T23:51:43.020Z,49.58
2019-05-07T23:54:12.445Z,60.85
2019-05-07T23:56:42.951Z,54.08
2019-05-07T23:59:14.844Z,62.35
